sensor_id;sensor_type;location;lat;lon;timestamp;pressure;altitude;pressure_sealevel;temperature
19644;BMP180;9970;-36.854;174.870;2023-07-29T00:01:17;101527.00;;;12.00
19644;BMP180;9970;-36.854;174.870;2023-07-29T00:03:50;101533.00;;;12.00
19644;BMP180;9970;-36.854;174.870;2023-07-29T00:06:23;101526.00;;;12.00
19644;BMP180;9970;-36.854;174.870;2023-07-29T00:08:56;101526.00;;;12.00
19644;BMP180;9970;-36.854;174.870;2023-07-29T00:11:29;101514.00;;;12.00
19644;BMP180;9970;-36.854;174.870;2023-07-29T00:14:03;101521.00;;;12.00
19644;BMP180;9970;-36.854;174.870;2023-07-29T00:16:36;101509.00;;;12.00
19644;BMP180;9970;-36.854;174.870;2023-07-29T00:19:09;101506.00;;;12.10
19644;BMP180;9970;-36.854;174.870;2023-07-29T00:21:42;101496.00;;;12.10
19644;BMP180;9970;-36.854;174.870;2023-07-29T00:24:15;101494.00;;;12.10
19644;BMP180;9970;-36.854;174.870;2023-07-29T00:26:48;101494.00;;;12.10
19644;BMP180;9970;-36.854;174.870;2023-07-29T00:29:21;101492.00;;;12.20
19644;BMP180;9970;-36.854;174.870;2023-07-29T00:31:55;101481.00;;;12.20
19644;BMP180;9970;-36.854;174.870;2023-07-29T00:34:28;101476.00;;;12.20
19644;BMP180;9970;-36.854;174.870;2023-07-29T00:37:02;101479.00;;;12.20
19644;BMP180;9970;-36.854;174.870;2023-07-29T00:39:35;101467.00;;;12.20
19644;BMP180;9970;-36.854;174.870;2023-07-29T00:42:08;101469.00;;;12.20
19644;BMP180;9970;-36.854;174.870;2023-07-29T00:44:41;101465.00;;;12.20
19644;BMP180;9970;-36.854;174.870;2023-07-29T00:47:15;101465.00;;;12.30
19644;BMP180;9970;-36.854;174.870;2023-07-29T00:49:48;101451.00;;;12.30
19644;BMP180;9970;-36.854;174.870;2023-07-29T00:52:21;101459.00;;;12.40
19644;BMP180;9970;-36.854;174.870;2023-07-29T00:54:55;101442.00;;;12.40
19644;BMP180;9970;-36.854;174.870;2023-07-29T00:57:29;101450.00;;;12.40
19644;BMP180;9970;-36.854;174.870;2023-07-29T01:00:03;101439.00;;;12.50
19644;BMP180;9970;-36.854;174.870;2023-07-29T01:02:36;101436.00;;;12.50
19644;BMP180;9970;-36.854;174.870;2023-07-29T01:05:10;101438.00;;;12.50
19644;BMP180;9970;-36.854;174.870;2023-07-29T01:07:49;101431.00;;;12.50
19644;BMP180;9970;-36.854;174.870;2023-07-29T01:15:56;101421.00;;;12.50
19644;BMP180;9970;-36.854;174.870;2023-07-29T01:18:38;101410.00;;;12.50
19644;BMP180;9970;-36.854;174.870;2023-07-29T01:21:12;101413.00;;;12.60
19644;BMP180;9970;-36.854;174.870;2023-07-29T01:23:46;101407.00;;;12.60
19644;BMP180;9970;-36.854;174.870;2023-07-29T01:26:19;101408.00;;;12.60
19644;BMP180;9970;-36.854;174.870;2023-07-29T01:28:52;101411.00;;;12.60
19644;BMP180;9970;-36.854;174.870;2023-07-29T01:31:33;101396.00;;;12.70
19644;BMP180;9970;-36.854;174.870;2023-07-29T01:34:23;101398.00;;;12.70
19644;BMP180;9970;-36.854;174.870;2023-07-29T01:36:52;101404.00;;;12.70
19644;BMP180;9970;-36.854;174.870;2023-07-29T01:39:29;101407.00;;;12.70
19644;BMP180;9970;-36.854;174.870;2023-07-29T01:42:02;101405.00;;;12.70
19644;BMP180;9970;-36.854;174.870;2023-07-29T01:44:35;101410.00;;;12.70
19644;BMP180;9970;-36.854;174.870;2023-07-29T01:47:09;101404.00;;;12.70
19644;BMP180;9970;-36.854;174.870;2023-07-29T01:49:43;101417.00;;;12.70
19644;BMP180;9970;-36.854;174.870;2023-07-29T01:52:16;101403.00;;;12.60
19644;BMP180;9970;-36.854;174.870;2023-07-29T01:54:49;101411.00;;;12.60
19644;BMP180;9970;-36.854;174.870;2023-07-29T01:57:23;101411.00;;;12.60
19644;BMP180;9970;-36.854;174.870;2023-07-29T01:59:55;101414.00;;;12.60
19644;BMP180;9970;-36.854;174.870;2023-07-29T02:02:28;101415.00;;;12.60
19644;BMP180;9970;-36.854;174.870;2023-07-29T02:05:02;101411.00;;;12.60
19644;BMP180;9970;-36.854;174.870;2023-07-29T02:07:35;101396.00;;;12.60
19644;BMP180;9970;-36.854;174.870;2023-07-29T02:10:08;101411.00;;;12.60
19644;BMP180;9970;-36.854;174.870;2023-07-29T02:12:41;101405.00;;;12.60
19644;BMP180;9970;-36.854;174.870;2023-07-29T02:15:14;101400.00;;;12.60
19644;BMP180;9970;-36.854;174.870;2023-07-29T02:17:49;101399.00;;;12.60
19644;BMP180;9970;-36.854;174.870;2023-07-29T02:20:22;101406.00;;;12.60
19644;BMP180;9970;-36.854;174.870;2023-07-29T02:22:55;101400.00;;;12.60
19644;BMP180;9970;-36.854;174.870;2023-07-29T02:25:28;101404.00;;;12.60
19644;BMP180;9970;-36.854;174.870;2023-07-29T02:28:01;101400.00;;;12.60
19644;BMP180;9970;-36.854;174.870;2023-07-29T02:30:35;101411.00;;;12.50
19644;BMP180;9970;-36.854;174.870;2023-07-29T02:33:07;101408.00;;;12.50
19644;BMP180;9970;-36.854;174.870;2023-07-29T02:35:41;101405.00;;;12.50
19644;BMP180;9970;-36.854;174.870;2023-07-29T02:38:16;101405.00;;;12.50
19644;BMP180;9970;-36.854;174.870;2023-07-29T02:40:50;101405.00;;;12.50
19644;BMP180;9970;-36.854;174.870;2023-07-29T02:43:23;101407.00;;;12.50
19644;BMP180;9970;-36.854;174.870;2023-07-29T02:45:56;101403.00;;;12.50
19644;BMP180;9970;-36.854;174.870;2023-07-29T02:48:29;101408.00;;;12.50
19644;BMP180;9970;-36.854;174.870;2023-07-29T02:51:02;101399.00;;;12.50
19644;BMP180;9970;-36.854;174.870;2023-07-29T02:53:35;101399.00;;;12.50
19644;BMP180;9970;-36.854;174.870;2023-07-29T02:56:08;101402.00;;;12.50
19644;BMP180;9970;-36.854;174.870;2023-07-29T02:58:42;101398.00;;;12.50
19644;BMP180;9970;-36.854;174.870;2023-07-29T03:01:16;101403.00;;;12.50
19644;BMP180;9970;-36.854;174.870;2023-07-29T03:03:49;101393.00;;;12.40
19644;BMP180;9970;-36.854;174.870;2023-07-29T03:06:22;101393.00;;;12.40
19644;BMP180;9970;-36.854;174.870;2023-07-29T03:08:55;101399.00;;;12.40
19644;BMP180;9970;-36.854;174.870;2023-07-29T03:11:28;101400.00;;;12.40
19644;BMP180;9970;-36.854;174.870;2023-07-29T03:14:02;101396.00;;;12.40
19644;BMP180;9970;-36.854;174.870;2023-07-29T03:16:34;101397.00;;;12.40
19644;BMP180;9970;-36.854;174.870;2023-07-29T03:19:08;101389.00;;;12.40
19644;BMP180;9970;-36.854;174.870;2023-07-29T03:21:41;101392.00;;;12.40
19644;BMP180;9970;-36.854;174.870;2023-07-29T03:24:15;101397.00;;;12.40
19644;BMP180;9970;-36.854;174.870;2023-07-29T03:26:48;101396.00;;;12.40
19644;BMP180;9970;-36.854;174.870;2023-07-29T03:29:21;101398.00;;;12.40
19644;BMP180;9970;-36.854;174.870;2023-07-29T03:31:53;101399.00;;;12.40
19644;BMP180;9970;-36.854;174.870;2023-07-29T03:34:29;101394.00;;;12.40
19644;BMP180;9970;-36.854;174.870;2023-07-29T03:37:03;101396.00;;;12.40
19644;BMP180;9970;-36.854;174.870;2023-07-29T03:39:36;101397.00;;;12.40
19644;BMP180;9970;-36.854;174.870;2023-07-29T03:42:09;101403.00;;;12.30
19644;BMP180;9970;-36.854;174.870;2023-07-29T03:44:42;101395.00;;;12.40
19644;BMP180;9970;-36.854;174.870;2023-07-29T03:47:15;101386.00;;;12.40
19644;BMP180;9970;-36.854;174.870;2023-07-29T03:49:48;101386.00;;;12.30
19644;BMP180;9970;-36.854;174.870;2023-07-29T03:52:21;101391.00;;;12.30
19644;BMP180;9970;-36.854;174.870;2023-07-29T03:54:54;101392.00;;;12.30
19644;BMP180;9970;-36.854;174.870;2023-07-29T03:57:28;101398.00;;;12.30
19644;BMP180;9970;-36.854;174.870;2023-07-29T04:00:01;101400.00;;;12.30
19644;BMP180;9970;-36.854;174.870;2023-07-29T04:02:35;101391.00;;;12.30
19644;BMP180;9970;-36.854;174.870;2023-07-29T04:05:14;101396.00;;;12.30
19644;BMP180;9970;-36.854;174.870;2023-07-29T04:07:47;101397.00;;;12.30
19644;BMP180;9970;-36.854;174.870;2023-07-29T04:10:20;101388.00;;;12.30
19644;BMP180;9970;-36.854;174.870;2023-07-29T04:12:53;101392.00;;;12.30
19644;BMP180;9970;-36.854;174.870;2023-07-29T04:15:26;101398.00;;;12.30
19644;BMP180;9970;-36.854;174.870;2023-07-29T04:17:59;101400.00;;;12.30
19644;BMP180;9970;-36.854;174.870;2023-07-29T04:20:32;101406.00;;;12.20
19644;BMP180;9970;-36.854;174.870;2023-07-29T04:23:05;101395.00;;;12.20
19644;BMP180;9970;-36.854;174.870;2023-07-29T04:25:38;101403.00;;;12.20
19644;BMP180;9970;-36.854;174.870;2023-07-29T04:28:11;101400.00;;;12.20
19644;BMP180;9970;-36.854;174.870;2023-07-29T04:30:44;101403.00;;;12.20
19644;BMP180;9970;-36.854;174.870;2023-07-29T04:33:17;101403.00;;;12.20
19644;BMP180;9970;-36.854;174.870;2023-07-29T04:35:50;101404.00;;;12.20
19644;BMP180;9970;-36.854;174.870;2023-07-29T04:38:25;101410.00;;;12.20
19644;BMP180;9970;-36.854;174.870;2023-07-29T04:41:00;101408.00;;;12.10
19644;BMP180;9970;-36.854;174.870;2023-07-29T04:43:33;101409.00;;;12.10
19644;BMP180;9970;-36.854;174.870;2023-07-29T04:46:07;101417.00;;;12.10
19644;BMP180;9970;-36.854;174.870;2023-07-29T04:48:40;101424.00;;;12.10
19644;BMP180;9970;-36.854;174.870;2023-07-29T04:51:13;101424.00;;;12.10
19644;BMP180;9970;-36.854;174.870;2023-07-29T04:53:46;101423.00;;;12.10
19644;BMP180;9970;-36.854;174.870;2023-07-29T04:56:19;101433.00;;;12.10
19644;BMP180;9970;-36.854;174.870;2023-07-29T04:58:52;101430.00;;;12.10
19644;BMP180;9970;-36.854;174.870;2023-07-29T05:01:25;101434.00;;;12.10
19644;BMP180;9970;-36.854;174.870;2023-07-29T05:03:58;101442.00;;;12.10
19644;BMP180;9970;-36.854;174.870;2023-07-29T05:06:31;101437.00;;;12.00
19644;BMP180;9970;-36.854;174.870;2023-07-29T05:09:17;101440.00;;;12.00
19644;BMP180;9970;-36.854;174.870;2023-07-29T05:11:51;101440.00;;;12.00
19644;BMP180;9970;-36.854;174.870;2023-07-29T05:14:24;101441.00;;;12.00
19644;BMP180;9970;-36.854;174.870;2023-07-29T05:16:57;101433.00;;;12.00
19644;BMP180;9970;-36.854;174.870;2023-07-29T05:19:33;101439.00;;;12.00
19644;BMP180;9970;-36.854;174.870;2023-07-29T05:22:06;101434.00;;;12.00
19644;BMP180;9970;-36.854;174.870;2023-07-29T05:24:39;101439.00;;;12.00
19644;BMP180;9970;-36.854;174.870;2023-07-29T05:27:12;101447.00;;;12.00
19644;BMP180;9970;-36.854;174.870;2023-07-29T05:29:46;101454.00;;;12.00
19644;BMP180;9970;-36.854;174.870;2023-07-29T05:32:19;101444.00;;;12.00
19644;BMP180;9970;-36.854;174.870;2023-07-29T05:34:52;101451.00;;;12.00
19644;BMP180;9970;-36.854;174.870;2023-07-29T05:37:26;101444.00;;;12.00
19644;BMP180;9970;-36.854;174.870;2023-07-29T05:39:59;101454.00;;;12.00
19644;BMP180;9970;-36.854;174.870;2023-07-29T05:42:36;101454.00;;;12.00
19644;BMP180;9970;-36.854;174.870;2023-07-29T05:45:09;101452.00;;;12.00
19644;BMP180;9970;-36.854;174.870;2023-07-29T05:47:42;101456.00;;;11.90
19644;BMP180;9970;-36.854;174.870;2023-07-29T05:50:15;101459.00;;;11.90
19644;BMP180;9970;-36.854;174.870;2023-07-29T05:52:54;101468.00;;;11.90
19644;BMP180;9970;-36.854;174.870;2023-07-29T05:55:41;101466.00;;;11.90
19644;BMP180;9970;-36.854;174.870;2023-07-29T05:58:14;101457.00;;;11.90
19644;BMP180;9970;-36.854;174.870;2023-07-29T06:00:47;101468.00;;;11.90
19644;BMP180;9970;-36.854;174.870;2023-07-29T06:03:20;101466.00;;;11.90
19644;BMP180;9970;-36.854;174.870;2023-07-29T06:05:53;101465.00;;;11.90
19644;BMP180;9970;-36.854;174.870;2023-07-29T06:08:26;101464.00;;;11.90
19644;BMP180;9970;-36.854;174.870;2023-07-29T06:11:00;101469.00;;;11.90
19644;BMP180;9970;-36.854;174.870;2023-07-29T06:13:33;101464.00;;;11.90
19644;BMP180;9970;-36.854;174.870;2023-07-29T06:16:06;101469.00;;;11.80
19644;BMP180;9970;-36.854;174.870;2023-07-29T06:18:39;101469.00;;;11.80
19644;BMP180;9970;-36.854;174.870;2023-07-29T06:21:12;101465.00;;;11.80
19644;BMP180;9970;-36.854;174.870;2023-07-29T06:23:47;101469.00;;;11.80
19644;BMP180;9970;-36.854;174.870;2023-07-29T06:26:20;101467.00;;;11.80
19644;BMP180;9970;-36.854;174.870;2023-07-29T06:28:53;101469.00;;;11.80
19644;BMP180;9970;-36.854;174.870;2023-07-29T06:31:26;101475.00;;;11.80
19644;BMP180;9970;-36.854;174.870;2023-07-29T06:33:59;101471.00;;;11.80
19644;BMP180;9970;-36.854;174.870;2023-07-29T06:39:28;101470.00;;;11.70
19644;BMP180;9970;-36.854;174.870;2023-07-29T06:42:00;101474.00;;;11.70
19644;BMP180;9970;-36.854;174.870;2023-07-29T06:44:33;101478.00;;;11.70
19644;BMP180;9970;-36.854;174.870;2023-07-29T06:47:07;101477.00;;;11.70
19644;BMP180;9970;-36.854;174.870;2023-07-29T06:49:40;101481.00;;;11.70
19644;BMP180;9970;-36.854;174.870;2023-07-29T06:52:13;101485.00;;;11.70
19644;BMP180;9970;-36.854;174.870;2023-07-29T06:54:46;101489.00;;;11.70
19644;BMP180;9970;-36.854;174.870;2023-07-29T06:57:19;101480.00;;;11.60
19644;BMP180;9970;-36.854;174.870;2023-07-29T06:59:52;101483.00;;;11.60
19644;BMP180;9970;-36.854;174.870;2023-07-29T07:02:25;101487.00;;;11.60
19644;BMP180;9970;-36.854;174.870;2023-07-29T07:04:59;101481.00;;;11.60
19644;BMP180;9970;-36.854;174.870;2023-07-29T07:07:32;101486.00;;;11.60
19644;BMP180;9970;-36.854;174.870;2023-07-29T07:10:05;101485.00;;;11.50
19644;BMP180;9970;-36.854;174.870;2023-07-29T07:12:38;101488.00;;;11.50
19644;BMP180;9970;-36.854;174.870;2023-07-29T07:15:15;101490.00;;;11.50
19644;BMP180;9970;-36.854;174.870;2023-07-29T07:17:48;101496.00;;;11.50
19644;BMP180;9970;-36.854;174.870;2023-07-29T07:20:21;101492.00;;;11.50
19644;BMP180;9970;-36.854;174.870;2023-07-29T07:22:54;101500.00;;;11.50
19644;BMP180;9970;-36.854;174.870;2023-07-29T07:25:27;101490.00;;;11.40
19644;BMP180;9970;-36.854;174.870;2023-07-29T07:28:00;101502.00;;;11.40
19644;BMP180;9970;-36.854;174.870;2023-07-29T07:30:33;101499.00;;;11.40
19644;BMP180;9970;-36.854;174.870;2023-07-29T07:33:06;101498.00;;;11.40
19644;BMP180;9970;-36.854;174.870;2023-07-29T07:35:39;101494.00;;;11.40
19644;BMP180;9970;-36.854;174.870;2023-07-29T07:38:13;101489.00;;;11.30
19644;BMP180;9970;-36.854;174.870;2023-07-29T07:40:53;101492.00;;;11.40
19644;BMP180;9970;-36.854;174.870;2023-07-29T07:43:27;101494.00;;;11.30
19644;BMP180;9970;-36.854;174.870;2023-07-29T07:46:01;101491.00;;;11.30
19644;BMP180;9970;-36.854;174.870;2023-07-29T07:48:34;101494.00;;;11.30
19644;BMP180;9970;-36.854;174.870;2023-07-29T07:51:16;101490.00;;;11.30
19644;BMP180;9970;-36.854;174.870;2023-07-29T07:53:49;101494.00;;;11.30
19644;BMP180;9970;-36.854;174.870;2023-07-29T07:56:22;101496.00;;;11.30
19644;BMP180;9970;-36.854;174.870;2023-07-29T07:58:55;101494.00;;;11.30
19644;BMP180;9970;-36.854;174.870;2023-07-29T08:01:33;101497.00;;;11.30
19644;BMP180;9970;-36.854;174.870;2023-07-29T08:04:03;101505.00;;;11.30
19644;BMP180;9970;-36.854;174.870;2023-07-29T08:06:37;101496.00;;;11.30
19644;BMP180;9970;-36.854;174.870;2023-07-29T08:09:10;101501.00;;;11.30
19644;BMP180;9970;-36.854;174.870;2023-07-29T08:11:43;101502.00;;;11.30
19644;BMP180;9970;-36.854;174.870;2023-07-29T08:14:18;101505.00;;;11.20
19644;BMP180;9970;-36.854;174.870;2023-07-29T08:16:51;101505.00;;;11.20
19644;BMP180;9970;-36.854;174.870;2023-07-29T08:19:24;101499.00;;;11.20
19644;BMP180;9970;-36.854;174.870;2023-07-29T08:21:57;101502.00;;;11.20
19644;BMP180;9970;-36.854;174.870;2023-07-29T08:24:30;101503.00;;;11.20
19644;BMP180;9970;-36.854;174.870;2023-07-29T08:27:03;101508.00;;;11.20
19644;BMP180;9970;-36.854;174.870;2023-07-29T08:29:36;101504.00;;;11.20
19644;BMP180;9970;-36.854;174.870;2023-07-29T08:32:12;101499.00;;;11.10
19644;BMP180;9970;-36.854;174.870;2023-07-29T08:34:45;101504.00;;;11.10
19644;BMP180;9970;-36.854;174.870;2023-07-29T08:37:18;101498.00;;;11.10
19644;BMP180;9970;-36.854;174.870;2023-07-29T08:39:51;101501.00;;;11.10
19644;BMP180;9970;-36.854;174.870;2023-07-29T08:42:27;101500.00;;;11.10
19644;BMP180;9970;-36.854;174.870;2023-07-29T08:45:01;101505.00;;;11.10
19644;BMP180;9970;-36.854;174.870;2023-07-29T08:47:35;101500.00;;;11.00
19644;BMP180;9970;-36.854;174.870;2023-07-29T08:50:09;101501.00;;;11.00
19644;BMP180;9970;-36.854;174.870;2023-07-29T08:52:44;101500.00;;;11.00
19644;BMP180;9970;-36.854;174.870;2023-07-29T08:55:17;101501.00;;;10.90
19644;BMP180;9970;-36.854;174.870;2023-07-29T08:57:50;101507.00;;;11.00
19644;BMP180;9970;-36.854;174.870;2023-07-29T09:00:23;101504.00;;;10.90
19644;BMP180;9970;-36.854;174.870;2023-07-29T09:02:57;101500.00;;;10.90
19644;BMP180;9970;-36.854;174.870;2023-07-29T09:05:33;101503.00;;;10.90
19644;BMP180;9970;-36.854;174.870;2023-07-29T09:08:06;101493.00;;;10.90
19644;BMP180;9970;-36.854;174.870;2023-07-29T09:10:40;101497.00;;;10.90
19644;BMP180;9970;-36.854;174.870;2023-07-29T09:13:12;101494.00;;;10.80
19644;BMP180;9970;-36.854;174.870;2023-07-29T09:15:46;101502.00;;;10.80
19644;BMP180;9970;-36.854;174.870;2023-07-29T09:18:20;101502.00;;;10.80
19644;BMP180;9970;-36.854;174.870;2023-07-29T09:20:54;101510.00;;;10.70
19644;BMP180;9970;-36.854;174.870;2023-07-29T09:23:28;101509.00;;;10.70
19644;BMP180;9970;-36.854;174.870;2023-07-29T09:26:05;101504.00;;;10.70
19644;BMP180;9970;-36.854;174.870;2023-07-29T09:28:41;101508.00;;;10.70
19644;BMP180;9970;-36.854;174.870;2023-07-29T09:31:21;101513.00;;;10.70
19644;BMP180;9970;-36.854;174.870;2023-07-29T09:34:02;101515.00;;;10.70
19644;BMP180;9970;-36.854;174.870;2023-07-29T09:36:35;101524.00;;;10.70
19644;BMP180;9970;-36.854;174.870;2023-07-29T09:39:12;101521.00;;;10.60
19644;BMP180;9970;-36.854;174.870;2023-07-29T09:41:48;101516.00;;;10.60
19644;BMP180;9970;-36.854;174.870;2023-07-29T09:44:22;101520.00;;;10.60
19644;BMP180;9970;-36.854;174.870;2023-07-29T09:46:55;101514.00;;;10.60
19644;BMP180;9970;-36.854;174.870;2023-07-29T09:49:29;101522.00;;;10.50
19644;BMP180;9970;-36.854;174.870;2023-07-29T09:52:03;101523.00;;;10.50
19644;BMP180;9970;-36.854;174.870;2023-07-29T09:54:37;101522.00;;;10.50
19644;BMP180;9970;-36.854;174.870;2023-07-29T09:57:19;101523.00;;;10.50
19644;BMP180;9970;-36.854;174.870;2023-07-29T09:59:56;101516.00;;;10.50
19644;BMP180;9970;-36.854;174.870;2023-07-29T10:02:28;101519.00;;;10.50
19644;BMP180;9970;-36.854;174.870;2023-07-29T10:05:03;101532.00;;;10.40
19644;BMP180;9970;-36.854;174.870;2023-07-29T10:07:37;101530.00;;;10.40
19644;BMP180;9970;-36.854;174.870;2023-07-29T10:10:11;101531.00;;;10.40
19644;BMP180;9970;-36.854;174.870;2023-07-29T10:12:44;101524.00;;;10.50
19644;BMP180;9970;-36.854;174.870;2023-07-29T10:15:18;101528.00;;;10.50
19644;BMP180;9970;-36.854;174.870;2023-07-29T10:17:51;101523.00;;;10.50
19644;BMP180;9970;-36.854;174.870;2023-07-29T10:20:25;101534.00;;;10.50
19644;BMP180;9970;-36.854;174.870;2023-07-29T10:22:59;101538.00;;;10.50
19644;BMP180;9970;-36.854;174.870;2023-07-29T10:25:43;101531.00;;;10.60
19644;BMP180;9970;-36.854;174.870;2023-07-29T10:28:08;101530.00;;;10.60
19644;BMP180;9970;-36.854;174.870;2023-07-29T10:30:42;101534.00;;;10.60
19644;BMP180;9970;-36.854;174.870;2023-07-29T10:33:15;101546.00;;;10.60
19644;BMP180;9970;-36.854;174.870;2023-07-29T10:35:49;101539.00;;;10.60
19644;BMP180;9970;-36.854;174.870;2023-07-29T10:38:26;101541.00;;;10.60
19644;BMP180;9970;-36.854;174.870;2023-07-29T10:40:59;101537.00;;;10.60
19644;BMP180;9970;-36.854;174.870;2023-07-29T10:43:33;101539.00;;;10.70
19644;BMP180;9970;-36.854;174.870;2023-07-29T10:46:17;101539.00;;;10.70
19644;BMP180;9970;-36.854;174.870;2023-07-29T10:48:55;101544.00;;;10.70
19644;BMP180;9970;-36.854;174.870;2023-07-29T10:51:38;101540.00;;;10.60
19644;BMP180;9970;-36.854;174.870;2023-07-29T10:54:14;101537.00;;;10.60
19644;BMP180;9970;-36.854;174.870;2023-07-29T10:56:50;101546.00;;;10.60
19644;BMP180;9970;-36.854;174.870;2023-07-29T10:59:33;101547.00;;;10.70
19644;BMP180;9970;-36.854;174.870;2023-07-29T11:02:17;101551.00;;;10.70
19644;BMP180;9970;-36.854;174.870;2023-07-29T11:04:52;101549.00;;;10.70
19644;BMP180;9970;-36.854;174.870;2023-07-29T11:07:25;101555.00;;;10.70
19644;BMP180;9970;-36.854;174.870;2023-07-29T11:10:03;101553.00;;;10.70
19644;BMP180;9970;-36.854;174.870;2023-07-29T11:12:46;101548.00;;;10.70
19644;BMP180;9970;-36.854;174.870;2023-07-29T11:15:24;101560.00;;;10.70
19644;BMP180;9970;-36.854;174.870;2023-07-29T11:17:58;101558.00;;;10.70
19644;BMP180;9970;-36.854;174.870;2023-07-29T11:20:32;101560.00;;;10.80
19644;BMP180;9970;-36.854;174.870;2023-07-29T11:23:06;101559.00;;;10.80
19644;BMP180;9970;-36.854;174.870;2023-07-29T11:25:40;101558.00;;;10.80
19644;BMP180;9970;-36.854;174.870;2023-07-29T11:28:13;101552.00;;;10.80
19644;BMP180;9970;-36.854;174.870;2023-07-29T11:30:46;101556.00;;;10.80
19644;BMP180;9970;-36.854;174.870;2023-07-29T11:33:24;101552.00;;;10.80
19644;BMP180;9970;-36.854;174.870;2023-07-29T11:35:57;101557.00;;;10.80
19644;BMP180;9970;-36.854;174.870;2023-07-29T11:38:30;101558.00;;;10.80
19644;BMP180;9970;-36.854;174.870;2023-07-29T11:41:05;101546.00;;;10.80
19644;BMP180;9970;-36.854;174.870;2023-07-29T11:43:38;101551.00;;;10.80
19644;BMP180;9970;-36.854;174.870;2023-07-29T11:46:12;101551.00;;;10.80
19644;BMP180;9970;-36.854;174.870;2023-07-29T11:48:45;101564.00;;;10.80
19644;BMP180;9970;-36.854;174.870;2023-07-29T11:51:22;101561.00;;;10.80
19644;BMP180;9970;-36.854;174.870;2023-07-29T11:53:55;101573.00;;;10.80
19644;BMP180;9970;-36.854;174.870;2023-07-29T11:56:28;101561.00;;;10.80
19644;BMP180;9970;-36.854;174.870;2023-07-29T11:59:02;101562.00;;;10.90
19644;BMP180;9970;-36.854;174.870;2023-07-29T12:01:36;101559.00;;;10.90
19644;BMP180;9970;-36.854;174.870;2023-07-29T12:04:10;101564.00;;;10.80
19644;BMP180;9970;-36.854;174.870;2023-07-29T12:06:43;101558.00;;;10.80
19644;BMP180;9970;-36.854;174.870;2023-07-29T12:09:16;101560.00;;;10.80
19644;BMP180;9970;-36.854;174.870;2023-07-29T12:11:49;101555.00;;;10.80
19644;BMP180;9970;-36.854;174.870;2023-07-29T12:14:25;101561.00;;;10.80
19644;BMP180;9970;-36.854;174.870;2023-07-29T12:17:05;101565.00;;;10.80
19644;BMP180;9970;-36.854;174.870;2023-07-29T12:19:39;101561.00;;;10.80
19644;BMP180;9970;-36.854;174.870;2023-07-29T12:22:17;101563.00;;;10.80
19644;BMP180;9970;-36.854;174.870;2023-07-29T12:24:47;101560.00;;;10.80
19644;BMP180;9970;-36.854;174.870;2023-07-29T12:27:21;101560.00;;;10.80
19644;BMP180;9970;-36.854;174.870;2023-07-29T12:29:54;101560.00;;;10.80
19644;BMP180;9970;-36.854;174.870;2023-07-29T12:32:27;101564.00;;;10.80
19644;BMP180;9970;-36.854;174.870;2023-07-29T12:35:01;101558.00;;;10.80
19644;BMP180;9970;-36.854;174.870;2023-07-29T12:37:34;101555.00;;;10.80
19644;BMP180;9970;-36.854;174.870;2023-07-29T12:40:08;101556.00;;;10.80
19644;BMP180;9970;-36.854;174.870;2023-07-29T12:42:40;101550.00;;;10.90
19644;BMP180;9970;-36.854;174.870;2023-07-29T12:45:20;101557.00;;;10.80
19644;BMP180;9970;-36.854;174.870;2023-07-29T12:47:50;101554.00;;;10.90
19644;BMP180;9970;-36.854;174.870;2023-07-29T12:50:27;101552.00;;;10.90
19644;BMP180;9970;-36.854;174.870;2023-07-29T12:53:00;101545.00;;;10.90
19644;BMP180;9970;-36.854;174.870;2023-07-29T12:55:34;101544.00;;;10.80
19644;BMP180;9970;-36.854;174.870;2023-07-29T12:58:07;101545.00;;;10.90
19644;BMP180;9970;-36.854;174.870;2023-07-29T13:00:39;101541.00;;;10.90
19644;BMP180;9970;-36.854;174.870;2023-07-29T13:03:12;101543.00;;;10.90
19644;BMP180;9970;-36.854;174.870;2023-07-29T13:05:46;101546.00;;;10.90
19644;BMP180;9970;-36.854;174.870;2023-07-29T13:08:19;101536.00;;;10.90
19644;BMP180;9970;-36.854;174.870;2023-07-29T13:10:54;101543.00;;;10.90
19644;BMP180;9970;-36.854;174.870;2023-07-29T13:13:27;101539.00;;;10.90
19644;BMP180;9970;-36.854;174.870;2023-07-29T13:16:04;101546.00;;;10.90
19644;BMP180;9970;-36.854;174.870;2023-07-29T13:18:37;101550.00;;;10.90
19644;BMP180;9970;-36.854;174.870;2023-07-29T13:21:10;101544.00;;;10.90
19644;BMP180;9970;-36.854;174.870;2023-07-29T13:23:43;101551.00;;;11.00
19644;BMP180;9970;-36.854;174.870;2023-07-29T13:26:16;101551.00;;;11.00
19644;BMP180;9970;-36.854;174.870;2023-07-29T13:28:49;101546.00;;;11.00
19644;BMP180;9970;-36.854;174.870;2023-07-29T13:31:22;101538.00;;;11.00
19644;BMP180;9970;-36.854;174.870;2023-07-29T13:33:55;101540.00;;;11.00
19644;BMP180;9970;-36.854;174.870;2023-07-29T13:36:28;101531.00;;;11.00
19644;BMP180;9970;-36.854;174.870;2023-07-29T13:39:01;101538.00;;;11.00
19644;BMP180;9970;-36.854;174.870;2023-07-29T13:41:34;101533.00;;;11.00
19644;BMP180;9970;-36.854;174.870;2023-07-29T13:44:07;101533.00;;;11.00
19644;BMP180;9970;-36.854;174.870;2023-07-29T13:46:40;101525.00;;;11.10
19644;BMP180;9970;-36.854;174.870;2023-07-29T13:49:13;101529.00;;;11.10
19644;BMP180;9970;-36.854;174.870;2023-07-29T13:51:46;101527.00;;;11.10
19644;BMP180;9970;-36.854;174.870;2023-07-29T13:54:19;101523.00;;;11.10
19644;BMP180;9970;-36.854;174.870;2023-07-29T13:56:52;101525.00;;;11.10
19644;BMP180;9970;-36.854;174.870;2023-07-29T13:59:25;101525.00;;;11.10
19644;BMP180;9970;-36.854;174.870;2023-07-29T14:01:58;101521.00;;;11.10
19644;BMP180;9970;-36.854;174.870;2023-07-29T14:04:36;101534.00;;;11.10
19644;BMP180;9970;-36.854;174.870;2023-07-29T14:07:06;101536.00;;;11.10
19644;BMP180;9970;-36.854;174.870;2023-07-29T14:09:39;101524.00;;;11.10
19644;BMP180;9970;-36.854;174.870;2023-07-29T14:12:13;101522.00;;;11.10
19644;BMP180;9970;-36.854;174.870;2023-07-29T14:14:47;101518.00;;;11.10
19644;BMP180;9970;-36.854;174.870;2023-07-29T14:17:20;101517.00;;;11.10